Time;durP1;ratioP1;P1;durP2;ratioP2;P2;SDS_P1;SDS_P2;PMS_P1;PMS_P2;Temp;Humidity;BMP_temperature;BMP_pressure;BME280_temperature;BME280_humidity;BME280_pressure;Samples;Min_cycle;Max_cycle;Signal;HPM_P1;HPM_P2
2022/07/24 17:10:03;;;;;;;8.45;7.72;;;;;;;;;;6213964;23;20027;-87
2022/07/24 17:12:29;;;;;;;7.82;7.05;;;;;;;;;;6215871;23;20019;-87
2022/07/24 17:14:55;;;;;;;8.10;7.10;;;;;;;;;;6216022;23;20055;-86
2022/07/24 17:17:23;;;;;;;8.75;7.43;;;;;;;;;;6216024;23;20005;-86
2022/07/24 17:19:48;;;;;;;7.40;6.70;;;;;;;;;;6186961;23;20008;-86
2022/07/24 17:22:24;;;;;;;8.07;7.38;;;;;;;;;;6185906;23;20001;-86
2022/07/24 17:24:50;;;;;;;7.40;6.80;;;;;;;;;;6186105;23;20324;-85
2022/07/24 17:27:17;;;;;;;7.80;7.05;;;;;;;;;;6185860;23;20005;-85
2022/07/24 17:29:43;;;;;;;8.13;7.32;;;;;;;;;;6185835;23;20080;-85
2022/07/24 17:32:10;;;;;;;9.75;7.20;;;;;;;;;;6159417;23;20035;-86
2022/07/24 17:34:35;;;;;;;7.85;7.18;;;;;;;;;;6187937;23;20039;-86
2022/07/24 17:37:01;;;;;;;8.30;6.95;;;;;;;;;;6188094;23;20004;-86
2022/07/24 17:39:26;;;;;;;9.88;8.35;;;;;;;;;;6187785;23;20005;-85
2022/07/24 17:41:52;;;;;;;8.68;7.82;;;;;;;;;;6161494;23;20001;-86
2022/07/24 17:44:18;;;;;;;7.97;7.28;;;;;;;;;;6186574;23;20021;-91
2022/07/24 17:46:44;;;;;;;9.07;7.63;;;;;;;;;;6188235;23;20007;-92
2022/07/24 17:49:10;;;;;;;9.05;8.15;;;;;;;;;;6188688;23;20076;-90
2022/07/24 17:51:36;;;;;;;8.60;7.75;;;;;;;;;;6188248;23;20008;-89
2022/07/24 17:54:01;;;;;;;8.07;7.28;;;;;;;;;;6193055;23;20005;-93
2022/07/24 17:56:27;;;;;;;7.90;7.20;;;;;;;;;;6180382;23;20012;-95
2022/07/24 17:58:52;;;;;;;8.07;7.18;;;;;;;;;;6197047;23;20006;-94
2022/07/24 18:01:18;;;;;;;7.30;6.70;;;;;;;;;;6189008;23;20013;-89
2022/07/24 18:03:43;;;;;;;7.15;6.45;;;;;;;;;;6173406;23;20416;-94
2022/07/24 18:06:09;;;;;;;8.25;7.13;;;;;;;;;;6221467;23;20091;-89
2022/07/24 18:08:34;;;;;;;8.32;7.38;;;;;;;;;;6178501;23;20019;-91
2022/07/24 18:11:00;;;;;;;7.97;7.18;;;;;;;;;;6189034;23;20061;-89
2022/07/24 18:13:25;;;;;;;8.00;7.28;;;;;;;;;;6190245;23;20008;-90
2022/07/24 18:15:52;;;;;;;7.78;7.07;;;;;;;;;;6165392;23;20012;-92
2022/07/24 18:18:18;;;;;;;8.75;7.95;;;;;;;;;;6167185;23;20012;-90
2022/07/24 18:20:44;;;;;;;8.25;7.55;;;;;;;;;;6164736;23;20259;-91
2022/07/24 18:23:10;;;;;;;8.30;7.40;;;;;;;;;;6190435;23;20088;-90
2022/07/24 18:25:35;;;;;;;7.75;7.05;;;;;;;;;;6188689;23;20009;-89
2022/07/24 18:28:01;;;;;;;7.65;6.95;;;;;;;;;;6188343;23;20016;-89
2022/07/24 18:30:27;;;;;;;8.75;7.22;;;;;;;;;;6164030;23;20073;-92
2022/07/24 18:32:53;;;;;;;8.20;7.40;;;;;;;;;;6189339;23;20009;-93
2022/07/24 18:35:18;;;;;;;8.27;7.30;;;;;;;;;;6163966;23;20007;-91
2022/07/24 18:37:44;;;;;;;8.82;7.38;;;;;;;;;;6190697;23;20528;-91
2022/07/24 18:40:12;;;;;;;8.90;7.13;;;;;;;;;;6165982;23;20009;-90
2022/07/24 18:42:39;;;;;;;8.30;7.60;;;;;;;;;;6190734;23;20001;-94
2022/07/24 18:45:05;;;;;;;8.00;7.20;;;;;;;;;;6165074;23;20088;-93
2022/07/24 18:47:31;;;;;;;8.48;7.68;;;;;;;;;;6190937;23;20020;-94
2022/07/24 18:49:58;;;;;;;9.07;8.02;;;;;;;;;;6193994;23;20330;-90
2022/07/24 18:52:25;;;;;;;9.27;7.70;;;;;;;;;;6193523;23;20054;-92
2022/07/24 18:54:56;;;;;;;8.40;7.70;;;;;;;;;;6198088;23;19997;-90
2022/07/24 18:57:22;;;;;;;8.80;8.00;;;;;;;;;;6195034;23;20429;-91
2022/07/24 18:59:47;;;;;;;10.05;9.13;;;;;;;;;;6167126;23;20039;-96
2022/07/24 19:02:13;;;;;;;9.52;8.10;;;;;;;;;;6164041;23;20424;-93
2022/07/24 19:04:38;;;;;;;10.15;8.40;;;;;;;;;;6162946;23;20027;-93
2022/07/24 19:07:08;;;;;;;9.10;8.27;;;;;;;;;;6164112;23;20020;-92
2022/07/24 19:09:33;;;;;;;9.63;8.18;;;;;;;;;;6162328;23;20013;-94
2022/07/24 19:11:59;;;;;;;10.25;8.15;;;;;;;;;;6162766;23;20032;-93
2022/07/24 19:14:24;;;;;;;9.48;8.50;;;;;;;;;;6162891;23;20012;-90
2022/07/24 19:16:50;;;;;;;8.75;8.05;;;;;;;;;;6162982;23;20368;-89
2022/07/24 19:19:15;;;;;;;8.75;7.85;;;;;;;;;;6190366;23;20417;-93
2022/07/24 19:21:41;;;;;;;10.18;8.63;;;;;;;;;;6189589;23;20328;-94
2022/07/24 19:24:06;;;;;;;8.20;7.40;;;;;;;;;;6164011;23;20012;-93
2022/07/24 19:26:32;;;;;;;8.50;7.70;;;;;;;;;;6164561;23;20095;-86
2022/07/24 19:28:57;;;;;;;9.00;8.15;;;;;;;;;;6185431;23;20008;-87
2022/07/24 19:31:23;;;;;;;8.73;7.88;;;;;;;;;;6187452;23;20013;-87
2022/07/24 19:33:48;;;;;;;9.73;8.82;;;;;;;;;;6187252;23;20012;-89
2022/07/24 19:36:14;;;;;;;9.20;8.32;;;;;;;;;;6187599;23;20072;-92
2022/07/24 19:38:41;;;;;;;8.88;8.00;;;;;;;;;;6189831;23;20337;-93
2022/07/24 19:41:06;;;;;;;10.52;8.98;;;;;;;;;;6163246;23;20455;-94
2022/07/24 19:43:32;;;;;;;9.50;8.48;;;;;;;;;;6162460;23;20016;-90
2022/07/24 19:45:57;;;;;;;10.18;9.10;;;;;;;;;;6189866;23;20012;-88
2022/07/24 19:48:23;;;;;;;8.70;7.88;;;;;;;;;;6188121;23;20005;-86
2022/07/24 19:50:48;;;;;;;9.00;8.10;;;;;;;;;;6189560;23;20417;-86
2022/07/24 19:53:14;;;;;;;8.18;7.47;;;;;;;;;;6188759;23;20008;-85
2022/07/24 19:55:39;;;;;;;11.23;9.88;;;;;;;;;;6194505;23;20543;-86
2022/07/24 19:58:04;;;;;;;8.80;8.00;;;;;;;;;;6186748;23;20372;-90
2022/07/24 20:00:30;;;;;;;9.02;8.13;;;;;;;;;;6188059;23;20016;-91
2022/07/24 20:02:55;;;;;;;11.00;8.05;;;;;;;;;;6194360;23;20001;-91
2022/07/24 20:05:21;;;;;;;8.43;7.70;;;;;;;;;;6198629;23;20063;-89
2022/07/24 20:07:46;;;;;;;8.77;7.88;;;;;;;;;;6195419;23;20013;-93
2022/07/24 20:10:12;;;;;;;9.57;8.70;;;;;;;;;;6196188;23;20081;-94
2022/07/24 20:12:37;;;;;;;9.27;7.93;;;;;;;;;;6163711;23;20067;-90
2022/07/24 20:15:03;;;;;;;8.82;8.02;;;;;;;;;;6169544;23;20448;-94
2022/07/24 20:17:29;;;;;;;9.20;8.30;;;;;;;;;;6193337;23;20001;-94
2022/07/24 20:19:54;;;;;;;8.85;8.07;;;;;;;;;;6189642;23;20005;-93
2022/07/24 20:22:20;;;;;;;8.75;8.05;;;;;;;;;;6187870;23;20001;-93
2022/07/24 20:24:45;;;;;;;7.93;7.30;;;;;;;;;;6192341;23;20072;-91
2022/07/24 20:27:11;;;;;;;8.50;7.72;;;;;;;;;;6194214;23;20001;-91
2022/07/24 20:29:36;;;;;;;8.82;7.95;;;;;;;;;;6195482;23;20005;-88
2022/07/24 20:32:02;;;;;;;9.15;7.63;;;;;;;;;;6193899;23;20419;-89
2022/07/24 20:34:28;;;;;;;9.10;8.20;;;;;;;;;;6192634;23;20009;-93
2022/07/24 20:36:55;;;;;;;8.95;8.05;;;;;;;;;;6190636;23;20031;-88
2022/07/24 20:39:21;;;;;;;8.82;7.93;;;;;;;;;;6188857;23;20004;-88
2022/07/24 20:41:47;;;;;;;9.18;8.27;;;;;;;;;;6189859;23;20008;-89
2022/07/24 20:44:12;;;;;;;8.82;8.02;;;;;;;;;;6192263;23;20024;-93
2022/07/24 20:46:38;;;;;;;9.13;8.43;;;;;;;;;;6190850;23;20008;-91
2022/07/24 20:49:03;;;;;;;8.38;7.53;;;;;;;;;;6189517;23;20001;-90
2022/07/24 20:51:28;;;;;;;8.55;7.75;;;;;;;;;;6192088;23;20001;-92
2022/07/24 20:53:54;;;;;;;8.57;7.88;;;;;;;;;;6190019;23;20324;-91
2022/07/24 20:56:19;;;;;;;8.93;8.02;;;;;;;;;;6191335;23;20027;-90
